This is the latest recevied weather packets stored in our database for station/object DO6WO-10. If no packets are shown the sender has not sent any weather packets the latest 10 day(s).
| Time | Temp. | Humidity | Pressure | Rain* | Wind** | Luminosity | Snow |
|---|---|---|---|---|---|---|---|
| 1777524196 | 4.44° C | 39% | 1030.6 hPa | - | - | - | - |
| 1777521495 | 4.44° C | 40% | 1030.4 hPa | - | - | - | - |
| 1777518795 | 4.44° C | 38% | 1030.4 hPa | - | - | - | - |
| 1777516095 | 5° C | 37% | 1030.4 hPa | - | - | - | - |
| 1777513395 | 6.11° C | 35% | 1030.1 hPa | - | - | - | - |
| 1777510695 | 6.11° C | 36% | 1030.1 hPa | - | - | - | - |
| 1777508002 | 7.22° C | 34% | - | - | - | - | - |
| 1777507995 | 7.22° C | 34% | 1029.7 hPa | - | - | - | - |
| 1777505295 | 7.22° C | 34% | 1029.7 hPa | - | - | - | - |
| 1777502595 | 8.33° C | 33% | 1029.2 hPa | - | - | - | - |
| 1777499894 | 8.33° C | 33% | 1028.9 hPa | - | - | - | - |
| 1777497204 | 10° C | 32% | 1028.7 hPa | - | - | - | - |
| 1777495434 | 10° C | 32% | 1028.5 hPa | - | - | - | - |
| 1777494504 | 10° C | 32% | 1028.5 hPa | - | - | - | - |
| 1777491804 | 11.67° C | 31% | 1027.9 hPa | - | - | - | - |
| 1777489104 | 12.22° C | 31% | 1027.4 hPa | - | - | - | - |
| 1777486404 | 13.89° C | 30% | 1026.7 hPa | - | - | - | - |
| 1777483704 | 14.44° C | 29% | 1026.2 hPa | - | - | - | - |
| 1777481004 | 15.56° C | 29% | 1026 hPa | - | - | - | - |
| 1777478304 | 15.56° C | 30% | 1025.8 hPa | - | - | - | - |
| 1777475604 | 16.67° C | 29% | 1025.6 hPa | - | - | - | - |
| 1777472904 | 16.67° C | 29% | 1025.6 hPa | - | - | - | - |
| 1777470204 | 18.33° C | 29% | 1025.5 hPa | - | - | - | - |
| 1777467504 | 17.78° C | 31% | 1025.6 hPa | - | - | - | - |
| 1777464803 | 18.33° C | 30% | 1025.5 hPa | - | - | - | - |
* Rain since midnight (hover to see other rain measurements)
** Current wind speed in m/s (hover to see current wind gust speed)